sensor_id;sensor_type;location;lat;lon;timestamp;P1;durP1;ratioP1;P2;durP2;ratioP2
10645;SDS011;5371;49.782;9.932;2024-01-06T00:01:02;12.90;;;7.97;;
10645;SDS011;5371;49.782;9.932;2024-01-06T00:03:31;16.00;;;8.33;;
10645;SDS011;5371;49.782;9.932;2024-01-06T00:05:58;12.30;;;7.57;;
10645;SDS011;5371;49.782;9.932;2024-01-06T00:08:25;16.77;;;7.80;;
10645;SDS011;5371;49.782;9.932;2024-01-06T00:10:53;10.80;;;7.63;;
10645;SDS011;5371;49.782;9.932;2024-01-06T00:13:20;15.83;;;8.07;;
10645;SDS011;5371;49.782;9.932;2024-01-06T00:15:47;14.13;;;7.87;;
10645;SDS011;5371;49.782;9.932;2024-01-06T00:18:14;13.97;;;7.17;;
10645;SDS011;5371;49.782;9.932;2024-01-06T00:20:43;13.63;;;7.07;;
10645;SDS011;5371;49.782;9.932;2024-01-06T00:23:09;12.93;;;7.67;;
10645;SDS011;5371;49.782;9.932;2024-01-06T00:25:36;11.37;;;6.60;;
10645;SDS011;5371;49.782;9.932;2024-01-06T00:28:03;13.23;;;6.67;;
10645;SDS011;5371;49.782;9.932;2024-01-06T00:30:31;11.17;;;6.53;;
10645;SDS011;5371;49.782;9.932;2024-01-06T00:32:58;12.90;;;6.07;;
10645;SDS011;5371;49.782;9.932;2024-01-06T00:35:25;12.07;;;6.10;;
10645;SDS011;5371;49.782;9.932;2024-01-06T00:37:53;9.73;;;5.73;;
10645;SDS011;5371;49.782;9.932;2024-01-06T00:40:20;14.83;;;6.20;;
10645;SDS011;5371;49.782;9.932;2024-01-06T00:42:47;10.07;;;5.43;;
10645;SDS011;5371;49.782;9.932;2024-01-06T00:45:14;13.10;;;5.50;;
10645;SDS011;5371;49.782;9.932;2024-01-06T00:47:41;8.23;;;4.90;;
10645;SDS011;5371;49.782;9.932;2024-01-06T00:50:08;8.50;;;4.57;;
10645;SDS011;5371;49.782;9.932;2024-01-06T00:52:35;10.43;;;5.37;;
10645;SDS011;5371;49.782;9.932;2024-01-06T00:55:04;10.03;;;5.53;;
10645;SDS011;5371;49.782;9.932;2024-01-06T00:57:31;9.63;;;5.40;;
10645;SDS011;5371;49.782;9.932;2024-01-06T00:59:58;11.73;;;6.03;;
10645;SDS011;5371;49.782;9.932;2024-01-06T01:02:25;9.93;;;5.63;;
10645;SDS011;5371;49.782;9.932;2024-01-06T01:04:52;8.43;;;5.07;;
10645;SDS011;5371;49.782;9.932;2024-01-06T01:07:19;8.47;;;4.57;;
10645;SDS011;5371;49.782;9.932;2024-01-06T01:09:46;10.67;;;4.70;;
10645;SDS011;5371;49.782;9.932;2024-01-06T01:12:17;5.17;;;4.23;;
10645;SDS011;5371;49.782;9.932;2024-01-06T01:14:44;9.87;;;4.70;;
10645;SDS011;5371;49.782;9.932;2024-01-06T01:17:11;9.57;;;4.37;;
10645;SDS011;5371;49.782;9.932;2024-01-06T01:19:38;8.50;;;4.70;;
10645;SDS011;5371;49.782;9.932;2024-01-06T01:22:05;10.70;;;5.00;;
10645;SDS011;5371;49.782;9.932;2024-01-06T01:24:31;8.67;;;4.23;;
10645;SDS011;5371;49.782;9.932;2024-01-06T01:26:59;8.43;;;4.77;;
10645;SDS011;5371;49.782;9.932;2024-01-06T01:29:27;6.90;;;4.00;;
10645;SDS011;5371;49.782;9.932;2024-01-06T01:31:54;5.17;;;3.23;;
10645;SDS011;5371;49.782;9.932;2024-01-06T01:34:21;6.97;;;3.87;;
10645;SDS011;5371;49.782;9.932;2024-01-06T01:36:48;8.97;;;3.80;;
10645;SDS011;5371;49.782;9.932;2024-01-06T01:39:15;7.77;;;3.43;;
10645;SDS011;5371;49.782;9.932;2024-01-06T01:41:42;8.00;;;4.13;;
10645;SDS011;5371;49.782;9.932;2024-01-06T01:44:09;6.80;;;3.70;;
10645;SDS011;5371;49.782;9.932;2024-01-06T01:46:38;7.97;;;4.00;;
10645;SDS011;5371;49.782;9.932;2024-01-06T01:49:05;8.87;;;3.73;;
10645;SDS011;5371;49.782;9.932;2024-01-06T01:51:32;9.20;;;3.83;;
10645;SDS011;5371;49.782;9.932;2024-01-06T01:54:03;7.27;;;3.30;;
10645;SDS011;5371;49.782;9.932;2024-01-06T01:56:31;6.30;;;2.87;;
10645;SDS011;5371;49.782;9.932;2024-01-06T01:58:59;10.30;;;3.53;;
10645;SDS011;5371;49.782;9.932;2024-01-06T02:01:27;5.10;;;3.03;;
10645;SDS011;5371;49.782;9.932;2024-01-06T02:03:56;7.57;;;3.00;;
10645;SDS011;5371;49.782;9.932;2024-01-06T02:06:24;6.13;;;2.57;;
10645;SDS011;5371;49.782;9.932;2024-01-06T02:08:51;4.87;;;2.67;;
10645;SDS011;5371;49.782;9.932;2024-01-06T02:11:18;4.93;;;2.77;;
10645;SDS011;5371;49.782;9.932;2024-01-06T02:13:45;7.40;;;3.20;;
10645;SDS011;5371;49.782;9.932;2024-01-06T02:16:11;5.53;;;2.90;;
10645;SDS011;5371;49.782;9.932;2024-01-06T02:18:38;5.47;;;2.47;;
10645;SDS011;5371;49.782;9.932;2024-01-06T02:21:07;8.63;;;2.60;;
10645;SDS011;5371;49.782;9.932;2024-01-06T02:23:35;4.27;;;2.53;;
10645;SDS011;5371;49.782;9.932;2024-01-06T02:26:02;3.37;;;2.20;;
10645;SDS011;5371;49.782;9.932;2024-01-06T02:28:30;4.90;;;2.63;;
10645;SDS011;5371;49.782;9.932;2024-01-06T02:30:56;6.80;;;2.60;;
10645;SDS011;5371;49.782;9.932;2024-01-06T02:33:23;6.60;;;2.70;;
10645;SDS011;5371;49.782;9.932;2024-01-06T02:35:50;6.67;;;2.70;;
10645;SDS011;5371;49.782;9.932;2024-01-06T02:38:17;4.40;;;2.77;;
10645;SDS011;5371;49.782;9.932;2024-01-06T02:40:46;6.43;;;3.17;;
10645;SDS011;5371;49.782;9.932;2024-01-06T02:43:12;5.90;;;2.93;;
10645;SDS011;5371;49.782;9.932;2024-01-06T02:45:39;7.80;;;2.73;;
10645;SDS011;5371;49.782;9.932;2024-01-06T02:48:06;5.00;;;2.60;;
10645;SDS011;5371;49.782;9.932;2024-01-06T02:50:33;6.00;;;2.80;;
10645;SDS011;5371;49.782;9.932;2024-01-06T02:53:00;6.13;;;2.50;;
10645;SDS011;5371;49.782;9.932;2024-01-06T02:55:27;5.00;;;2.20;;
10645;SDS011;5371;49.782;9.932;2024-01-06T02:57:55;5.73;;;2.60;;
10645;SDS011;5371;49.782;9.932;2024-01-06T03:00:22;3.90;;;1.90;;
10645;SDS011;5371;49.782;9.932;2024-01-06T03:02:50;4.57;;;1.90;;
10645;SDS011;5371;49.782;9.932;2024-01-06T03:05:17;6.37;;;2.20;;
10645;SDS011;5371;49.782;9.932;2024-01-06T03:07:44;7.40;;;2.33;;
10645;SDS011;5371;49.782;9.932;2024-01-06T03:10:11;4.47;;;2.10;;
10645;SDS011;5371;49.782;9.932;2024-01-06T03:12:38;6.43;;;1.80;;
10645;SDS011;5371;49.782;9.932;2024-01-06T03:15:07;5.07;;;2.03;;
10645;SDS011;5371;49.782;9.932;2024-01-06T03:17:35;3.20;;;1.80;;
10645;SDS011;5371;49.782;9.932;2024-01-06T03:20:03;9.57;;;2.30;;
10645;SDS011;5371;49.782;9.932;2024-01-06T03:22:30;4.67;;;2.10;;
10645;SDS011;5371;49.782;9.932;2024-01-06T03:24:57;4.50;;;2.20;;
10645;SDS011;5371;49.782;9.932;2024-01-06T03:27:24;4.07;;;2.03;;
10645;SDS011;5371;49.782;9.932;2024-01-06T03:29:51;6.37;;;1.90;;
10645;SDS011;5371;49.782;9.932;2024-01-06T03:32:19;4.53;;;2.10;;
10645;SDS011;5371;49.782;9.932;2024-01-06T03:34:46;6.03;;;2.13;;
10645;SDS011;5371;49.782;9.932;2024-01-06T03:37:13;4.70;;;1.97;;
10645;SDS011;5371;49.782;9.932;2024-01-06T03:39:40;3.00;;;1.90;;
10645;SDS011;5371;49.782;9.932;2024-01-06T03:42:07;5.40;;;2.17;;
10645;SDS011;5371;49.782;9.932;2024-01-06T03:44:34;4.60;;;1.90;;
10645;SDS011;5371;49.782;9.932;2024-01-06T03:47:01;4.67;;;2.20;;
10645;SDS011;5371;49.782;9.932;2024-01-06T03:49:29;5.83;;;2.20;;
10645;SDS011;5371;49.782;9.932;2024-01-06T03:51:56;7.17;;;2.20;;
10645;SDS011;5371;49.782;9.932;2024-01-06T03:54:23;6.93;;;2.13;;
10645;SDS011;5371;49.782;9.932;2024-01-06T03:56:50;4.93;;;2.10;;
10645;SDS011;5371;49.782;9.932;2024-01-06T03:59:17;6.30;;;2.37;;
10645;SDS011;5371;49.782;9.932;2024-01-06T04:01:44;5.80;;;2.47;;
10645;SDS011;5371;49.782;9.932;2024-01-06T04:04:11;4.63;;;2.37;;
10645;SDS011;5371;49.782;9.932;2024-01-06T04:06:39;5.70;;;2.47;;
10645;SDS011;5371;49.782;9.932;2024-01-06T04:09:06;7.40;;;2.40;;
10645;SDS011;5371;49.782;9.932;2024-01-06T04:11:34;5.57;;;2.67;;
10645;SDS011;5371;49.782;9.932;2024-01-06T04:14:01;5.23;;;2.57;;
10645;SDS011;5371;49.782;9.932;2024-01-06T04:16:28;4.77;;;2.80;;
10645;SDS011;5371;49.782;9.932;2024-01-06T04:18:55;9.50;;;2.80;;
10645;SDS011;5371;49.782;9.932;2024-01-06T04:21:22;5.30;;;2.90;;
10645;SDS011;5371;49.782;9.932;2024-01-06T04:23:51;7.43;;;2.93;;
10645;SDS011;5371;49.782;9.932;2024-01-06T04:26:17;6.17;;;3.23;;
10645;SDS011;5371;49.782;9.932;2024-01-06T04:28:44;9.37;;;3.27;;
10645;SDS011;5371;49.782;9.932;2024-01-06T04:31:12;5.07;;;2.80;;
10645;SDS011;5371;49.782;9.932;2024-01-06T04:33:39;4.83;;;3.03;;
10645;SDS011;5371;49.782;9.932;2024-01-06T04:36:06;5.40;;;3.13;;
10645;SDS011;5371;49.782;9.932;2024-01-06T04:38:34;9.47;;;3.53;;
10645;SDS011;5371;49.782;9.932;2024-01-06T04:41:02;8.73;;;3.50;;
10645;SDS011;5371;49.782;9.932;2024-01-06T04:43:29;9.07;;;3.13;;
10645;SDS011;5371;49.782;9.932;2024-01-06T04:45:56;8.63;;;3.13;;
10645;SDS011;5371;49.782;9.932;2024-01-06T04:48:23;7.03;;;3.40;;
10645;SDS011;5371;49.782;9.932;2024-01-06T04:50:50;6.87;;;3.33;;
10645;SDS011;5371;49.782;9.932;2024-01-06T04:53:17;7.87;;;3.37;;
10645;SDS011;5371;49.782;9.932;2024-01-06T04:55:44;6.13;;;3.33;;
10645;SDS011;5371;49.782;9.932;2024-01-06T04:58:12;6.23;;;3.20;;
10645;SDS011;5371;49.782;9.932;2024-01-06T05:00:39;5.80;;;3.00;;
10645;SDS011;5371;49.782;9.932;2024-01-06T05:03:06;7.53;;;3.30;;
10645;SDS011;5371;49.782;9.932;2024-01-06T05:05:33;5.57;;;3.00;;
10645;SDS011;5371;49.782;9.932;2024-01-06T05:08:00;10.47;;;3.53;;
10645;SDS011;5371;49.782;9.932;2024-01-06T05:10:28;5.83;;;3.30;;
10645;SDS011;5371;49.782;9.932;2024-01-06T05:12:55;5.47;;;3.10;;
10645;SDS011;5371;49.782;9.932;2024-01-06T05:15:23;7.40;;;3.20;;
10645;SDS011;5371;49.782;9.932;2024-01-06T05:17:50;6.87;;;3.17;;
10645;SDS011;5371;49.782;9.932;2024-01-06T05:20:17;6.33;;;3.00;;
10645;SDS011;5371;49.782;9.932;2024-01-06T05:22:44;4.17;;;2.90;;
10645;SDS011;5371;49.782;9.932;2024-01-06T05:25:11;7.73;;;3.47;;
10645;SDS011;5371;49.782;9.932;2024-01-06T05:27:38;7.13;;;2.83;;
10645;SDS011;5371;49.782;9.932;2024-01-06T05:30:06;4.30;;;2.37;;
10645;SDS011;5371;49.782;9.932;2024-01-06T05:32:35;8.17;;;2.60;;
10645;SDS011;5371;49.782;9.932;2024-01-06T05:35:03;7.33;;;3.10;;
10645;SDS011;5371;49.782;9.932;2024-01-06T05:37:31;5.07;;;2.70;;
10645;SDS011;5371;49.782;9.932;2024-01-06T05:39:58;5.73;;;2.70;;
10645;SDS011;5371;49.782;9.932;2024-01-06T05:42:27;5.63;;;2.77;;
10645;SDS011;5371;49.782;9.932;2024-01-06T05:44:53;5.00;;;2.70;;
10645;SDS011;5371;49.782;9.932;2024-01-06T05:47:21;6.43;;;3.00;;
10645;SDS011;5371;49.782;9.932;2024-01-06T05:49:49;5.87;;;2.83;;
10645;SDS011;5371;49.782;9.932;2024-01-06T05:52:16;9.20;;;3.13;;
10645;SDS011;5371;49.782;9.932;2024-01-06T05:54:43;6.17;;;2.97;;
10645;SDS011;5371;49.782;9.932;2024-01-06T05:57:10;7.87;;;3.33;;
10645;SDS011;5371;49.782;9.932;2024-01-06T05:59:37;7.27;;;2.87;;
10645;SDS011;5371;49.782;9.932;2024-01-06T06:02:04;6.63;;;3.20;;
10645;SDS011;5371;49.782;9.932;2024-01-06T06:04:31;3.80;;;2.83;;
10645;SDS011;5371;49.782;9.932;2024-01-06T06:06:59;6.93;;;3.43;;
10645;SDS011;5371;49.782;9.932;2024-01-06T06:09:26;5.93;;;2.73;;
10645;SDS011;5371;49.782;9.932;2024-01-06T06:11:53;5.20;;;3.03;;
10645;SDS011;5371;49.782;9.932;2024-01-06T06:14:20;7.70;;;3.17;;
10645;SDS011;5371;49.782;9.932;2024-01-06T06:16:48;6.40;;;3.20;;
10645;SDS011;5371;49.782;9.932;2024-01-06T06:19:15;7.90;;;3.20;;
10645;SDS011;5371;49.782;9.932;2024-01-06T06:21:43;5.83;;;3.17;;
10645;SDS011;5371;49.782;9.932;2024-01-06T06:24:12;6.83;;;3.00;;
10645;SDS011;5371;49.782;9.932;2024-01-06T06:26:38;7.53;;;3.73;;
10645;SDS011;5371;49.782;9.932;2024-01-06T06:29:05;6.60;;;3.57;;
10645;SDS011;5371;49.782;9.932;2024-01-06T06:31:32;9.27;;;3.50;;
10645;SDS011;5371;49.782;9.932;2024-01-06T06:33:59;7.97;;;3.40;;
10645;SDS011;5371;49.782;9.932;2024-01-06T06:36:26;7.83;;;3.73;;
10645;SDS011;5371;49.782;9.932;2024-01-06T06:38:54;5.40;;;2.90;;
10645;SDS011;5371;49.782;9.932;2024-01-06T06:41:24;9.40;;;3.13;;
10645;SDS011;5371;49.782;9.932;2024-01-06T06:43:51;6.77;;;3.30;;
10645;SDS011;5371;49.782;9.932;2024-01-06T06:46:18;6.60;;;3.10;;
10645;SDS011;5371;49.782;9.932;2024-01-06T06:48:45;9.47;;;3.77;;
10645;SDS011;5371;49.782;9.932;2024-01-06T06:51:12;8.33;;;3.57;;
10645;SDS011;5371;49.782;9.932;2024-01-06T06:53:39;7.80;;;4.10;;
10645;SDS011;5371;49.782;9.932;2024-01-06T06:56:06;8.03;;;4.30;;
10645;SDS011;5371;49.782;9.932;2024-01-06T06:58:34;7.80;;;4.23;;
10645;SDS011;5371;49.782;9.932;2024-01-06T07:01:02;9.10;;;4.20;;
10645;SDS011;5371;49.782;9.932;2024-01-06T07:03:29;9.90;;;4.03;;
10645;SDS011;5371;49.782;9.932;2024-01-06T07:05:56;8.53;;;4.17;;
10645;SDS011;5371;49.782;9.932;2024-01-06T07:08:22;8.83;;;4.00;;
10645;SDS011;5371;49.782;9.932;2024-01-06T07:10:49;9.13;;;4.17;;
10645;SDS011;5371;49.782;9.932;2024-01-06T07:13:16;7.77;;;4.00;;
10645;SDS011;5371;49.782;9.932;2024-01-06T07:15:44;8.13;;;4.23;;
10645;SDS011;5371;49.782;9.932;2024-01-06T07:18:11;6.43;;;4.10;;
10645;SDS011;5371;49.782;9.932;2024-01-06T07:20:38;9.33;;;3.80;;
10645;SDS011;5371;49.782;9.932;2024-01-06T07:23:05;6.80;;;3.77;;
10645;SDS011;5371;49.782;9.932;2024-01-06T07:25:32;5.80;;;4.00;;
10645;SDS011;5371;49.782;9.932;2024-01-06T07:27:59;8.60;;;4.03;;
10645;SDS011;5371;49.782;9.932;2024-01-06T07:30:26;9.83;;;4.10;;
10645;SDS011;5371;49.782;9.932;2024-01-06T07:32:54;8.73;;;4.40;;
10645;SDS011;5371;49.782;9.932;2024-01-06T07:35:24;8.60;;;4.57;;
10645;SDS011;5371;49.782;9.932;2024-01-06T07:37:51;9.37;;;4.80;;
10645;SDS011;5371;49.782;9.932;2024-01-06T07:40:18;8.93;;;4.57;;
10645;SDS011;5371;49.782;9.932;2024-01-06T07:42:45;7.47;;;4.37;;
10645;SDS011;5371;49.782;9.932;2024-01-06T07:45:12;10.03;;;4.63;;
10645;SDS011;5371;49.782;9.932;2024-01-06T07:47:39;6.43;;;4.33;;
10645;SDS011;5371;49.782;9.932;2024-01-06T07:50:08;8.23;;;5.00;;
10645;SDS011;5371;49.782;9.932;2024-01-06T07:52:35;8.37;;;4.60;;
10645;SDS011;5371;49.782;9.932;2024-01-06T07:55:03;9.57;;;4.97;;
10645;SDS011;5371;49.782;9.932;2024-01-06T07:57:30;12.33;;;4.97;;
10645;SDS011;5371;49.782;9.932;2024-01-06T07:59:57;9.83;;;5.30;;
10645;SDS011;5371;49.782;9.932;2024-01-06T08:02:25;8.00;;;4.70;;
10645;SDS011;5371;49.782;9.932;2024-01-06T08:04:53;9.90;;;5.10;;
10645;SDS011;5371;49.782;9.932;2024-01-06T08:07:22;9.67;;;4.87;;
10645;SDS011;5371;49.782;9.932;2024-01-06T08:09:49;12.03;;;5.30;;
10645;SDS011;5371;49.782;9.932;2024-01-06T08:12:16;9.67;;;5.50;;
10645;SDS011;5371;49.782;9.932;2024-01-06T08:14:43;11.13;;;5.23;;
10645;SDS011;5371;49.782;9.932;2024-01-06T08:17:10;9.63;;;5.23;;
10645;SDS011;5371;49.782;9.932;2024-01-06T08:19:37;11.47;;;5.47;;
10645;SDS011;5371;49.782;9.932;2024-01-06T08:22:04;10.43;;;5.30;;
10645;SDS011;5371;49.782;9.932;2024-01-06T08:24:33;10.03;;;5.40;;
10645;SDS011;5371;49.782;9.932;2024-01-06T08:27:00;8.27;;;5.23;;
10645;SDS011;5371;49.782;9.932;2024-01-06T08:29:27;10.50;;;5.77;;
10645;SDS011;5371;49.782;9.932;2024-01-06T08:31:54;11.27;;;4.93;;
10645;SDS011;5371;49.782;9.932;2024-01-06T08:34:21;9.90;;;5.03;;
10645;SDS011;5371;49.782;9.932;2024-01-06T08:36:48;11.47;;;5.10;;
10645;SDS011;5371;49.782;9.932;2024-01-06T08:39:16;9.20;;;5.90;;
10645;SDS011;5371;49.782;9.932;2024-01-06T08:41:44;11.30;;;5.93;;
10645;SDS011;5371;49.782;9.932;2024-01-06T08:44:11;9.90;;;5.70;;
10645;SDS011;5371;49.782;9.932;2024-01-06T08:46:38;10.83;;;5.37;;
10645;SDS011;5371;49.782;9.932;2024-01-06T08:49:05;11.63;;;5.20;;
10645;SDS011;5371;49.782;9.932;2024-01-06T08:51:32;9.00;;;5.37;;
10645;SDS011;5371;49.782;9.932;2024-01-06T08:54:01;11.07;;;5.33;;
10645;SDS011;5371;49.782;9.932;2024-01-06T08:56:30;10.10;;;5.50;;
10645;SDS011;5371;49.782;9.932;2024-01-06T08:58:59;10.20;;;5.57;;
10645;SDS011;5371;49.782;9.932;2024-01-06T09:01:26;10.77;;;5.80;;
10645;SDS011;5371;49.782;9.932;2024-01-06T09:03:53;8.23;;;5.47;;
10645;SDS011;5371;49.782;9.932;2024-01-06T09:06:20;11.43;;;5.40;;
10645;SDS011;5371;49.782;9.932;2024-01-06T09:08:47;8.53;;;5.90;;
10645;SDS011;5371;49.782;9.932;2024-01-06T09:11:14;12.53;;;5.57;;
10645;SDS011;5371;49.782;9.932;2024-01-06T09:13:40;9.10;;;5.40;;
10645;SDS011;5371;49.782;9.932;2024-01-06T09:16:09;11.23;;;6.33;;
10645;SDS011;5371;49.782;9.932;2024-01-06T09:18:37;9.77;;;5.37;;
10645;SDS011;5371;49.782;9.932;2024-01-06T09:21:04;10.47;;;5.60;;
10645;SDS011;5371;49.782;9.932;2024-01-06T09:23:31;10.43;;;5.90;;
10645;SDS011;5371;49.782;9.932;2024-01-06T09:25:58;10.83;;;5.43;;
10645;SDS011;5371;49.782;9.932;2024-01-06T09:28:25;11.13;;;5.57;;
10645;SDS011;5371;49.782;9.932;2024-01-06T09:30:53;12.53;;;5.73;;
10645;SDS011;5371;49.782;9.932;2024-01-06T09:33:22;11.23;;;5.93;;
10645;SDS011;5371;49.782;9.932;2024-01-06T09:35:49;13.40;;;6.57;;
10645;SDS011;5371;49.782;9.932;2024-01-06T09:38:17;11.53;;;6.13;;
10645;SDS011;5371;49.782;9.932;2024-01-06T09:40:44;13.67;;;6.57;;
10645;SDS011;5371;49.782;9.932;2024-01-06T09:43:11;13.40;;;6.73;;
10645;SDS011;5371;49.782;9.932;2024-01-06T09:45:39;11.30;;;6.33;;
10645;SDS011;5371;49.782;9.932;2024-01-06T09:48:10;15.03;;;6.17;;
10645;SDS011;5371;49.782;9.932;2024-01-06T09:50:41;10.40;;;6.10;;
10645;SDS011;5371;49.782;9.932;2024-01-06T09:53:10;10.67;;;5.70;;
10645;SDS011;5371;49.782;9.932;2024-01-06T09:55:37;9.30;;;5.90;;
10645;SDS011;5371;49.782;9.932;2024-01-06T09:58:05;10.20;;;5.70;;
10645;SDS011;5371;49.782;9.932;2024-01-06T10:00:32;9.53;;;5.70;;
10645;SDS011;5371;49.782;9.932;2024-01-06T10:02:59;9.77;;;5.70;;
10645;SDS011;5371;49.782;9.932;2024-01-06T10:05:26;9.23;;;5.47;;
10645;SDS011;5371;49.782;9.932;2024-01-06T10:07:55;9.97;;;5.40;;
10645;SDS011;5371;49.782;9.932;2024-01-06T10:10:22;11.50;;;6.17;;
10645;SDS011;5371;49.782;9.932;2024-01-06T10:12:52;8.77;;;5.63;;
10645;SDS011;5371;49.782;9.932;2024-01-06T10:15:19;11.13;;;6.10;;
10645;SDS011;5371;49.782;9.932;2024-01-06T10:17:46;13.03;;;6.03;;
10645;SDS011;5371;49.782;9.932;2024-01-06T10:20:13;13.00;;;5.83;;
10645;SDS011;5371;49.782;9.932;2024-01-06T10:22:41;9.33;;;5.53;;
10645;SDS011;5371;49.782;9.932;2024-01-06T10:25:10;16.80;;;7.20;;
10645;SDS011;5371;49.782;9.932;2024-01-06T10:27:37;8.70;;;5.80;;
10645;SDS011;5371;49.782;9.932;2024-01-06T10:30:06;9.60;;;5.90;;
10645;SDS011;5371;49.782;9.932;2024-01-06T10:32:33;10.50;;;5.97;;
10645;SDS011;5371;49.782;9.932;2024-01-06T10:35:01;11.87;;;5.90;;
10645;SDS011;5371;49.782;9.932;2024-01-06T10:37:29;10.83;;;5.53;;
10645;SDS011;5371;49.782;9.932;2024-01-06T10:40:11;12.93;;;6.00;;
10645;SDS011;5371;49.782;9.932;2024-01-06T10:42:39;10.30;;;5.27;;
10645;SDS011;5371;49.782;9.932;2024-01-06T10:45:07;7.90;;;5.57;;
10645;SDS011;5371;49.782;9.932;2024-01-06T10:47:35;9.47;;;5.50;;
10645;SDS011;5371;49.782;9.932;2024-01-06T10:50:03;12.23;;;6.17;;
10645;SDS011;5371;49.782;9.932;2024-01-06T10:52:32;9.60;;;5.20;;
10645;SDS011;5371;49.782;9.932;2024-01-06T10:55:00;9.73;;;5.43;;
10645;SDS011;5371;49.782;9.932;2024-01-06T10:57:30;10.50;;;6.90;;
10645;SDS011;5371;49.782;9.932;2024-01-06T10:59:58;12.50;;;5.73;;
10645;SDS011;5371;49.782;9.932;2024-01-06T11:02:26;10.23;;;5.87;;
10645;SDS011;5371;49.782;9.932;2024-01-06T11:04:53;8.43;;;5.03;;
10645;SDS011;5371;49.782;9.932;2024-01-06T11:07:20;9.70;;;5.63;;
10645;SDS011;5371;49.782;9.932;2024-01-06T11:09:50;8.33;;;5.10;;
10645;SDS011;5371;49.782;9.932;2024-01-06T11:12:18;8.17;;;5.03;;
10645;SDS011;5371;49.782;9.932;2024-01-06T11:14:47;7.83;;;5.17;;
10645;SDS011;5371;49.782;9.932;2024-01-06T11:17:18;10.17;;;5.20;;
10645;SDS011;5371;49.782;9.932;2024-01-06T11:20:21;7.23;;;4.57;;
10645;SDS011;5371;49.782;9.932;2024-01-06T11:22:49;11.40;;;4.77;;
10645;SDS011;5371;49.782;9.932;2024-01-06T11:25:17;7.43;;;4.27;;
10645;SDS011;5371;49.782;9.932;2024-01-06T11:27:45;7.57;;;4.37;;
10645;SDS011;5371;49.782;9.932;2024-01-06T11:32:58;6.37;;;4.43;;
10645;SDS011;5371;49.782;9.932;2024-01-06T11:35:26;7.83;;;4.40;;
10645;SDS011;5371;49.782;9.932;2024-01-06T11:37:55;8.07;;;4.60;;
10645;SDS011;5371;49.782;9.932;2024-01-06T11:40:23;5.93;;;4.47;;
10645;SDS011;5371;49.782;9.932;2024-01-06T11:42:58;8.23;;;4.57;;
10645;SDS011;5371;49.782;9.932;2024-01-06T11:45:28;8.27;;;3.90;;
10645;SDS011;5371;49.782;9.932;2024-01-06T11:47:58;8.70;;;4.70;;
10645;SDS011;5371;49.782;9.932;2024-01-06T11:50:25;9.13;;;4.53;;
10645;SDS011;5371;49.782;9.932;2024-01-06T11:52:53;9.53;;;4.80;;
10645;SDS011;5371;49.782;9.932;2024-01-06T11:55:23;8.83;;;4.70;;
10645;SDS011;5371;49.782;9.932;2024-01-06T11:57:50;7.00;;;4.70;;
10645;SDS011;5371;49.782;9.932;2024-01-06T12:00:17;6.73;;;4.10;;
10645;SDS011;5371;49.782;9.932;2024-01-06T12:02:46;5.53;;;3.70;;
10645;SDS011;5371;49.782;9.932;2024-01-06T12:05:13;9.33;;;4.63;;
10645;SDS011;5371;49.782;9.932;2024-01-06T12:07:41;7.77;;;4.70;;
10645;SDS011;5371;49.782;9.932;2024-01-06T12:10:09;6.20;;;4.30;;
10645;SDS011;5371;49.782;9.932;2024-01-06T12:12:37;10.83;;;4.27;;
10645;SDS011;5371;49.782;9.932;2024-01-06T12:15:05;7.40;;;4.60;;
10645;SDS011;5371;49.782;9.932;2024-01-06T12:17:35;8.27;;;4.70;;
10645;SDS011;5371;49.782;9.932;2024-01-06T12:20:04;8.07;;;4.60;;
10645;SDS011;5371;49.782;9.932;2024-01-06T12:22:34;6.97;;;4.37;;
10645;SDS011;5371;49.782;9.932;2024-01-06T12:25:02;7.13;;;4.00;;
10645;SDS011;5371;49.782;9.932;2024-01-06T12:27:32;6.07;;;3.90;;
10645;SDS011;5371;49.782;9.932;2024-01-06T12:29:59;8.23;;;4.10;;
10645;SDS011;5371;49.782;9.932;2024-01-06T12:32:26;8.97;;;4.57;;
10645;SDS011;5371;49.782;9.932;2024-01-06T12:34:53;6.03;;;4.10;;
10645;SDS011;5371;49.782;9.932;2024-01-06T12:37:23;10.03;;;4.87;;
10645;SDS011;5371;49.782;9.932;2024-01-06T12:39:50;9.40;;;3.73;;
10645;SDS011;5371;49.782;9.932;2024-01-06T12:42:17;6.17;;;3.77;;
10645;SDS011;5371;49.782;9.932;2024-01-06T12:44:45;8.97;;;4.07;;
10645;SDS011;5371;49.782;9.932;2024-01-06T12:47:12;6.03;;;4.40;;
10645;SDS011;5371;49.782;9.932;2024-01-06T12:49:39;5.93;;;3.57;;
10645;SDS011;5371;49.782;9.932;2024-01-06T12:52:06;8.60;;;4.40;;
10645;SDS011;5371;49.782;9.932;2024-01-06T12:54:34;5.27;;;3.43;;
10645;SDS011;5371;49.782;9.932;2024-01-06T12:57:01;6.83;;;4.40;;
10645;SDS011;5371;49.782;9.932;2024-01-06T12:59:29;6.17;;;4.00;;
10645;SDS011;5371;49.782;9.932;2024-01-06T13:01:56;6.60;;;4.50;;
10645;SDS011;5371;49.782;9.932;2024-01-06T13:04:23;7.40;;;3.90;;
10645;SDS011;5371;49.782;9.932;2024-01-06T13:06:50;7.77;;;4.30;;
10645;SDS011;5371;49.782;9.932;2024-01-06T13:09:17;5.27;;;3.83;;
10645;SDS011;5371;49.782;9.932;2024-01-06T13:11:46;6.57;;;3.40;;
10645;SDS011;5371;49.782;9.932;2024-01-06T13:14:13;6.87;;;3.83;;
10645;SDS011;5371;49.782;9.932;2024-01-06T13:16:40;7.00;;;3.63;;
10645;SDS011;5371;49.782;9.932;2024-01-06T13:19:07;7.17;;;4.10;;
10645;SDS011;5371;49.782;9.932;2024-01-06T13:21:34;8.00;;;3.90;;
10645;SDS011;5371;49.782;9.932;2024-01-06T13:24:05;6.23;;;3.60;;
10645;SDS011;5371;49.782;9.932;2024-01-06T13:26:32;5.83;;;3.87;;
10645;SDS011;5371;49.782;9.932;2024-01-06T13:29:01;6.20;;;3.73;;
10645;SDS011;5371;49.782;9.932;2024-01-06T13:31:28;5.00;;;3.33;;
10645;SDS011;5371;49.782;9.932;2024-01-06T13:33:56;5.30;;;3.67;;
10645;SDS011;5371;49.782;9.932;2024-01-06T13:36:23;7.00;;;3.63;;
10645;SDS011;5371;49.782;9.932;2024-01-06T13:38:50;4.43;;;3.23;;
10645;SDS011;5371;49.782;9.932;2024-01-06T13:41:17;5.17;;;3.63;;
10645;SDS011;5371;49.782;9.932;2024-01-06T13:43:44;4.70;;;3.60;;
10645;SDS011;5371;49.782;9.932;2024-01-06T13:46:12;5.93;;;3.40;;
10645;SDS011;5371;49.782;9.932;2024-01-06T13:48:39;4.73;;;3.53;;
10645;SDS011;5371;49.782;9.932;2024-01-06T13:51:07;9.27;;;4.00;;
10645;SDS011;5371;49.782;9.932;2024-01-06T13:53:34;5.77;;;3.60;;
10645;SDS011;5371;49.782;9.932;2024-01-06T13:56:01;6.23;;;3.63;;
10645;SDS011;5371;49.782;9.932;2024-01-06T13:58:28;6.20;;;3.80;;
10645;SDS011;5371;49.782;9.932;2024-01-06T14:00:55;6.13;;;3.70;;
10645;SDS011;5371;49.782;9.932;2024-01-06T14:03:24;7.77;;;3.83;;
10645;SDS011;5371;49.782;9.932;2024-01-06T14:05:51;8.93;;;4.27;;
10645;SDS011;5371;49.782;9.932;2024-01-06T14:08:19;8.67;;;4.27;;
10645;SDS011;5371;49.782;9.932;2024-01-06T14:10:46;16.20;;;6.40;;
10645;SDS011;5371;49.782;9.932;2024-01-06T14:13:13;10.50;;;4.90;;
10645;SDS011;5371;49.782;9.932;2024-01-06T14:15:39;7.43;;;3.93;;
10645;SDS011;5371;49.782;9.932;2024-01-06T14:18:06;6.57;;;3.53;;
10645;SDS011;5371;49.782;9.932;2024-01-06T14:20:37;5.80;;;3.20;;
10645;SDS011;5371;49.782;9.932;2024-01-06T14:23:06;6.90;;;3.07;;
10645;SDS011;5371;49.782;9.932;2024-01-06T14:25:34;5.73;;;3.30;;
10645;SDS011;5371;49.782;9.932;2024-01-06T14:28:00;10.63;;;3.60;;
10645;SDS011;5371;49.782;9.932;2024-01-06T14:30:28;6.30;;;3.33;;
10645;SDS011;5371;49.782;9.932;2024-01-06T14:32:55;6.73;;;3.33;;
10645;SDS011;5371;49.782;9.932;2024-01-06T14:35:22;5.87;;;3.47;;
10645;SDS011;5371;49.782;9.932;2024-01-06T14:37:51;6.10;;;3.40;;
10645;SDS011;5371;49.782;9.932;2024-01-06T14:40:19;5.63;;;3.37;;
10645;SDS011;5371;49.782;9.932;2024-01-06T14:42:46;7.43;;;3.70;;
10645;SDS011;5371;49.782;9.932;2024-01-06T14:45:16;8.30;;;3.80;;
10645;SDS011;5371;49.782;9.932;2024-01-06T14:47:43;9.07;;;3.60;;
10645;SDS011;5371;49.782;9.932;2024-01-06T14:50:10;6.37;;;3.50;;
10645;SDS011;5371;49.782;9.932;2024-01-06T14:52:38;8.70;;;3.80;;
10645;SDS011;5371;49.782;9.932;2024-01-06T14:55:06;7.90;;;3.60;;
10645;SDS011;5371;49.782;9.932;2024-01-06T14:57:35;8.90;;;4.23;;
10645;SDS011;5371;49.782;9.932;2024-01-06T15:00:02;7.10;;;3.73;;
10645;SDS011;5371;49.782;9.932;2024-01-06T15:02:30;7.20;;;3.77;;